Wetterdaten: Woche 20.04.09 - 26.04.09 (KW17)
Datum Zeit Temp. Innen Temp. Aussen Feuchte Inne Feuchte Auss Luftdruck Regen ab 0,1 Wind
20.04.2009 00:00 20,0 C 8,9 C 50 % 76 % 1023,5 hPa 0,0 l/m 0,0 km/h (0 Bft)
20.04.2009 01:00 19,9 C 8,1 C 49 % 77 % 1023,5 hPa 0,0 l/m 0,0 km/h (0 Bft)
20.04.2009 02:00 19,8 C 7,4 C 49 % 79 % 1023,4 hPa 0,0 l/m 0,0 km/h (0 Bft)
20.04.2009 03:00 19,6 C 6,8 C 49 % 80 % 1022,8 hPa 0,0 l/m 0,0 km/h (0 Bft)
20.04.2009 04:00 19,5 C 6,1 C 49 % 81 % 1023,4 hPa 0,0 l/m 0,0 km/h (0 Bft)
20.04.2009 05:00 19,4 C 5,6 C 49 % 81 % 1023,5 hPa 0,0 l/m 0,0 km/h (0 Bft)
20.04.2009 06:00 19,2 C 5,2 C 48 % 82 % 1023,5 hPa 0,0 l/m 0,0 km/h (0 Bft)
20.04.2009 07:00 19,2 C 5,1 C 48 % 83 % 1023,5 hPa 0,0 l/m 0,0 km/h (0 Bft)
20.04.2009 08:00 19,2 C 6,4 C 49 % 84 % 1023,5 hPa 0,0 l/m 0,0 km/h (0 Bft)
20.04.2009 09:00 19,1 C 8,7 C 50 % 86 % 1023,5 hPa 0,0 l/m 0,0 km/h (0 Bft)
20.04.2009 10:00 19,2 C 11,5 C 51 % 86 % 1023,4 hPa 0,0 l/m 1,0 km/h (0 Bft)
20.04.2009 11:00 19,2 C 14,7 C 51 % 77 % 1023,4 hPa 0,0 l/m 2,8 km/h (1 Bft)
20.04.2009 12:00 19,2 C 17,2 C 52 % 64 % 1023,3 hPa 0,0 l/m 11,5 km/h (2 Bft)
20.04.2009 13:00 19,3 C 18,9 C 51 % 57 % 1022,4 hPa 0,0 l/m 1,9 km/h (1 Bft)
20.04.2009 14:00 19,5 C 20,2 C 51 % 51 % 1022,3 hPa 0,0 l/m 0,2 km/h (0 Bft)
20.04.2009 15:00 19,9 C 21,9 C 50 % 47 % 1022,1 hPa 0,0 l/m 0,4 km/h (0 Bft)
20.04.2009 16:00 20,5 C 22,5 C 51 % 44 % 1021,4 hPa 0,0 l/m 0,0 km/h (0 Bft)
20.04.2009 17:00 20,9 C 21,2 C 53 % 44 % 1021,3 hPa 0,0 l/m 1,1 km/h (1 Bft)
20.04.2009 18:00 20,8 C 19,9 C 52 % 46 % 1021,3 hPa 0,0 l/m 0,9 km/h (0 Bft)
20.04.2009 19:00 20,8 C 18,9 C 51 % 50 % 1021,3 hPa 0,0 l/m 0,0 km/h (0 Bft)
20.04.2009 20:00 20,8 C 17,3 C 51 % 54 % 1021,8 hPa 0,0 l/m 0,0 km/h (0 Bft)
20.04.2009 21:00 20,8 C 15,2 C 51 % 59 % 1022,4 hPa 0,0 l/m 0,0 km/h (0 Bft)
20.04.2009 22:00 20,8 C 13,3 C 50 % 64 % 1022,4 hPa 0,0 l/m 0,0 km/h (0 Bft)
20.04.2009 23:00 20,8 C 11,6 C 50 % 68 % 1022,4 hPa 0,0 l/m 0,0 km/h (0 Bft)
21.04.2009 00:00 20,6 C 10,2 C 50 % 70 % 1022,7 hPa 0,0 l/m 0,0 km/h (0 Bft)
21.04.2009 01:00 20,5 C 9,3 C 49 % 72 % 1022,5 hPa 0,0 l/m 0,0 km/h (0 Bft)
21.04.2009 02:00 20,4 C 9,4 C 49 % 72 % 1022,5 hPa 0,0 l/m 0,0 km/h (0 Bft)
21.04.2009 03:00 20,3 C 8,4 C 49 % 73 % 1023,3 hPa 0,0 l/m 0,0 km/h (0 Bft)
21.04.2009 04:00 20,1 C 7,5 C 49 % 75 % 1022,9 hPa 0,0 l/m 0,0 km/h (0 Bft)
21.04.2009 05:00 20,0 C 6,6 C 48 % 76 % 1023,1 hPa 0,0 l/m 0,0 km/h (0 Bft)
21.04.2009 06:00 19,8 C 5,9 C 48 % 77 % 1023,4 hPa 0,0 l/m 0,0 km/h (0 Bft)
21.04.2009 07:00 19,6 C 5,7 C 48 % 79 % 1023,5 hPa 0,0 l/m 0,0 km/h (0 Bft)
21.04.2009 08:00 19,6 C 7,5 C 48 % 81 % 1023,5 hPa 0,0 l/m 0,0 km/h (0 Bft)
21.04.2009 09:00 19,5 C 9,9 C 48 % 78 % 1023,4 hPa 0,0 l/m 0,0 km/h (0 Bft)
21.04.2009 10:00 19,5 C 12,6 C 49 % 73 % 1023,4 hPa 0,0 l/m 0,2 km/h (0 Bft)
21.04.2009 11:00 19,5 C 15,5 C 50 % 67 % 1023,4 hPa 0,0 l/m 4,9 km/h (1 Bft)
21.04.2009 12:00 19,6 C 18,0 C 50 % 59 % 1023,3 hPa 0,0 l/m 9,2 km/h (2 Bft)
21.04.2009 13:00 19,7 C 19,7 C 50 % 50 % 1022,4 hPa 0,0 l/m 1,4 km/h (1 Bft)
21.04.2009 14:00 19,9 C 21,0 C 49 % 45 % 1022,3 hPa 0,0 l/m 0,2 km/h (0 Bft)
21.04.2009 15:00 20,2 C 21,9 C 49 % 43 % 1022,3 hPa 0,0 l/m 0,0 km/h (0 Bft)
21.04.2009 16:00 20,7 C 22,0 C 50 % 41 % 1021,8 hPa 0,0 l/m 0,4 km/h (0 Bft)
21.04.2009 17:00 20,9 C 21,1 C 50 % 42 % 1021,3 hPa 0,0 l/m 3,1 km/h (1 Bft)
21.04.2009 18:00 21,0 C 20,1 C 50 % 43 % 1021,3 hPa 0,0 l/m 1,0 km/h (0 Bft)
21.04.2009 19:00 21,0 C 19,1 C 50 % 45 % 1021,3 hPa 0,0 l/m 0,1 km/h (0 Bft)
21.04.2009 20:00 21,0 C 17,4 C 50 % 49 % 1022,1 hPa 0,0 l/m 0,0 km/h (0 Bft)
21.04.2009 21:00 21,0 C 15,7 C 48 % 50 % 1022,3 hPa 0,0 l/m 0,2 km/h (0 Bft)
21.04.2009 22:00 21,0 C 14,1 C 47 % 51 % 1023,3 hPa 0,0 l/m 0,0 km/h (0 Bft)
21.04.2009 23:00 20,9 C 12,5 C 46 % 55 % 1023,4 hPa 0,0 l/m 0,0 km/h (0 Bft)
22.04.2009 00:00 20,8 C 10,7 C 46 % 59 % 1023,4 hPa 0,0 l/m 0,0 km/h (0 Bft)
22.04.2009 01:00 20,7 C 9,4 C 46 % 63 % 1023,5 hPa 0,0 l/m 0,0 km/h (0 Bft)
22.04.2009 02:00 20,5 C 8,9 C 47 % 70 % 1023,6 hPa 0,0 l/m 0,0 km/h (0 Bft)
22.04.2009 03:00 20,4 C 8,5 C 48 % 74 % 1023,5 hPa 0,0 l/m 0,0 km/h (0 Bft)
22.04.2009 04:00 20,3 C 7,8 C 48 % 77 % 1023,5 hPa 0,0 l/m 0,0 km/h (0 Bft)
22.04.2009 05:00 20,1 C 7,3 C 48 % 79 % 1023,5 hPa 0,0 l/m 0,3 km/h (0 Bft)
22.04.2009 06:00 20,0 C 7,7 C 48 % 83 % 1023,5 hPa 0,0 l/m 0,0 km/h (0 Bft)
22.04.2009 07:00 19,9 C 7,8 C 48 % 83 % 1024,3 hPa 0,0 l/m 0,0 km/h (0 Bft)
22.04.2009 08:00 19,7 C 7,9 C 48 % 83 % 1024,5 hPa 0,0 l/m 0,0 km/h (0 Bft)
22.04.2009 09:00 19,7 C 8,7 C 48 % 81 % 1024,5 hPa 0,0 l/m 0,0 km/h (0 Bft)
22.04.2009 10:00 19,6 C 9,6 C 48 % 79 % 1024,4 hPa 0,0 l/m 0,5 km/h (0 Bft)
22.04.2009 11:00 19,5 C 11,2 C 48 % 76 % 1024,4 hPa 0,0 l/m 0,8 km/h (0 Bft)
22.04.2009 12:00 19,3 C 12,5 C 49 % 72 % 1024,4 hPa 0,0 l/m 0,6 km/h (0 Bft)
22.04.2009 13:00 19,5 C 14,0 C 49 % 65 % 1023,7 hPa 0,0 l/m 0,5 km/h (0 Bft)
22.04.2009 14:00 19,7 C 16,2 C 49 % 57 % 1022,9 hPa 0,0 l/m 8,2 km/h (2 Bft)
22.04.2009 15:00 19,9 C 16,8 C 48 % 48 % 1022,3 hPa 0,0 l/m 5,5 km/h (1 Bft)
22.04.2009 16:00 20,2 C 16,8 C 45 % 42 % 1022,3 hPa 0,0 l/m 2,1 km/h (1 Bft)
22.04.2009 17:00 20,6 C 16,4 C 43 % 40 % 1022,3 hPa 0,0 l/m 2,2 km/h (1 Bft)
22.04.2009 18:00 20,4 C 15,5 C 43 % 41 % 1022,3 hPa 0,0 l/m 3,0 km/h (1 Bft)
22.04.2009 19:00 20,4 C 14,2 C 42 % 43 % 1022,4 hPa 0,0 l/m 0,9 km/h (0 Bft)
22.04.2009 20:00 20,4 C 12,5 C 42 % 47 % 1022,4 hPa 0,0 l/m 0,2 km/h (0 Bft)
22.04.2009 21:00 20,3 C 10,8 C 41 % 52 % 1023,1 hPa 0,0 l/m 0,0 km/h (0 Bft)
22.04.2009 22:00 20,5 C 9,4 C 41 % 57 % 1023,4 hPa 0,0 l/m 0,0 km/h (0 Bft)
22.04.2009 23:00 20,2 C 8,3 C 41 % 61 % 1023,5 hPa 0,0 l/m 0,0 km/h (0 Bft)
23.04.2009 00:00 20,0 C 7,3 C 42 % 65 % 1023,5 hPa 0,0 l/m 0,0 km/h (0 Bft)
23.04.2009 01:00 19,9 C 6,4 C 42 % 68 % 1023,5 hPa 0,0 l/m 0,0 km/h (0 Bft)
23.04.2009 02:00 19,7 C 6,4 C 42 % 71 % 1023,5 hPa 0,0 l/m 0,0 km/h (0 Bft)
23.04.2009 03:00 19,6 C 7,0 C 43 % 73 % 1023,5 hPa 0,0 l/m 0,0 km/h (0 Bft)
23.04.2009 04:00 19,4 C 7,3 C 43 % 74 % 1023,5 hPa 0,0 l/m 0,0 km/h (0 Bft)
23.04.2009 05:00 19,3 C 7,4 C 44 % 74 % 1023,5 hPa 0,0 l/m 0,0 km/h (0 Bft)
23.04.2009 06:00 19,3 C 7,4 C 44 % 75 % 1023,5 hPa 0,0 l/m 0,0 km/h (0 Bft)
23.04.2009 07:00 19,2 C 7,6 C 45 % 77 % 1023,7 hPa 0,0 l/m 0,0 km/h (0 Bft)
23.04.2009 08:00 19,2 C 8,2 C 45 % 78 % 1024,2 hPa 0,0 l/m 0,0 km/h (0 Bft)
23.04.2009 09:00 19,1 C 9,3 C 45 % 74 % 1024,5 hPa 0,0 l/m 0,1 km/h (0 Bft)
23.04.2009 10:00 19,1 C 10,0 C 46 % 71 % 1024,4 hPa 0,0 l/m 0,0 km/h (0 Bft)
23.04.2009 11:00 19,1 C 10,5 C 46 % 67 % 1024,4 hPa 0,0 l/m 0,1 km/h (0 Bft)
23.04.2009 12:00 19,1 C 11,9 C 45 % 63 % 1024,4 hPa 0,0 l/m 1,0 km/h (0 Bft)
23.04.2009 13:00 19,2 C 13,2 C 45 % 59 % 1024,4 hPa 0,0 l/m 0,0 km/h (0 Bft)
23.04.2009 14:00 19,3 C 13,9 C 45 % 55 % 1024,4 hPa 0,0 l/m 0,9 km/h (0 Bft)
23.04.2009 15:00 19,5 C 14,8 C 45 % 54 % 1024,3 hPa 0,0 l/m 1,5 km/h (1 Bft)
23.04.2009 16:00 19,8 C 16,0 C 45 % 51 % 1023,5 hPa 0,0 l/m 4,0 km/h (1 Bft)
23.04.2009 17:00 20,0 C 16,0 C 44 % 51 % 1023,3 hPa 0,0 l/m 1,1 km/h (0 Bft)
23.04.2009 18:00 20,0 C 15,5 C 44 % 51 % 1023,0 hPa 0,0 l/m 1,3 km/h (1 Bft)
23.04.2009 19:00 20,0 C 14,6 C 44 % 53 % 1022,8 hPa 0,0 l/m 0,0 km/h (0 Bft)
23.04.2009 20:00 20,0 C 13,2 C 44 % 56 % 1023,2 hPa 0,0 l/m 0,0 km/h (0 Bft)
23.04.2009 21:00 20,0 C 11,4 C 44 % 60 % 1023,4 hPa 0,0 l/m 0,0 km/h (0 Bft)
23.04.2009 22:00 19,9 C 9,8 C 44 % 64 % 1023,4 hPa 0,0 l/m 0,0 km/h (0 Bft)
23.04.2009 23:00 19,8 C 8,4 C 44 % 68 % 1023,5 hPa 0,0 l/m 0,0 km/h (0 Bft)
24.04.2009 00:00 19,7 C 7,3 C 45 % 70 % 1023,5 hPa 0,0 l/m 0,0 km/h (0 Bft)
24.04.2009 01:00 19,6 C 6,4 C 45 % 73 % 1023,4 hPa 0,0 l/m 0,0 km/h (0 Bft)
24.04.2009 02:00 19,5 C 5,6 C 45 % 74 % 1022,5 hPa 0,0 l/m 0,0 km/h (0 Bft)
24.04.2009 03:00 19,3 C 5,0 C 45 % 76 % 1022,5 hPa 0,0 l/m 0,0 km/h (0 Bft)
24.04.2009 04:00 19,2 C 4,7 C 45 % 77 % 1022,5 hPa 0,0 l/m 0,0 km/h (0 Bft)
24.04.2009 05:00 19,1 C 4,2 C 45 % 78 % 1022,5 hPa 0,0 l/m 0,0 km/h (0 Bft)
24.04.2009 06:00 19,0 C 4,1 C 45 % 79 % 1022,5 hPa 0,0 l/m 0,0 km/h (0 Bft)
24.04.2009 07:00 18,9 C 4,8 C 45 % 81 % 1022,5 hPa 0,0 l/m 0,0 km/h (0 Bft)
24.04.2009 08:00 18,9 C 6,9 C 45 % 83 % 1022,5 hPa 0,0 l/m 0,0 km/h (0 Bft)
24.04.2009 09:00 18,8 C 9,0 C 46 % 78 % 1022,4 hPa 0,0 l/m 0,4 km/h (0 Bft)
24.04.2009 10:00 18,8 C 11,7 C 46 % 71 % 1022,0 hPa 0,0 l/m 0,5 km/h (0 Bft)
24.04.2009 11:00 18,8 C 14,5 C 46 % 60 % 1021,4 hPa 0,0 l/m 1,0 km/h (0 Bft)
24.04.2009 12:00 18,9 C 16,6 C 46 % 52 % 1020,5 hPa 0,0 l/m 3,4 km/h (1 Bft)
24.04.2009 13:00 19,0 C 18,5 C 46 % 49 % 1019,7 hPa 0,0 l/m 5,8 km/h (2 Bft)
24.04.2009 14:00 19,2 C 20,3 C 46 % 45 % 1018,3 hPa 0,0 l/m 0,6 km/h (0 Bft)
24.04.2009 15:00 19,6 C 21,5 C 45 % 42 % 1017,0 hPa 0,0 l/m 2,8 km/h (1 Bft)
24.04.2009 16:00 20,1 C 21,9 C 45 % 40 % 1016,2 hPa 0,0 l/m 1,9 km/h (1 Bft)
24.04.2009 17:00 20,4 C 21,2 C 44 % 40 % 1015,2 hPa 0,0 l/m 5,9 km/h (2 Bft)
24.04.2009 18:00 20,4 C 19,9 C 44 % 42 % 1015,0 hPa 0,0 l/m 1,3 km/h (1 Bft)
24.04.2009 19:00 20,5 C 18,7 C 44 % 44 % 1014,3 hPa 0,0 l/m 0,3 km/h (0 Bft)
24.04.2009 20:00 20,5 C 17,2 C 44 % 46 % 1014,3 hPa 0,0 l/m 0,0 km/h (0 Bft)
24.04.2009 21:00 20,6 C 15,5 C 44 % 50 % 1014,3 hPa 0,0 l/m 0,0 km/h (0 Bft)
24.04.2009 22:00 20,6 C 14,1 C 44 % 54 % 1014,3 hPa 0,0 l/m 0,0 km/h (0 Bft)
24.04.2009 23:00 20,6 C 13,1 C 45 % 57 % 1013,4 hPa 0,0 l/m 0,0 km/h (0 Bft)
25.04.2009 00:00 20,5 C 11,7 C 45 % 61 % 1012,7 hPa 0,0 l/m 0,0 km/h (0 Bft)
25.04.2009 01:00 20,4 C 10,6 C 45 % 65 % 1012,4 hPa 0,0 l/m 0,0 km/h (0 Bft)
25.04.2009 02:00 20,4 C 10,8 C 46 % 67 % 1011,5 hPa 0,0 l/m 0,0 km/h (0 Bft)
25.04.2009 03:00 20,2 C 9,8 C 46 % 69 % 1010,7 hPa 0,0 l/m 0,0 km/h (0 Bft)
25.04.2009 04:00 20,1 C 8,7 C 46 % 71 % 1010,4 hPa 0,0 l/m 0,0 km/h (0 Bft)
25.04.2009 05:00 20,0 C 7,7 C 46 % 74 % 1010,4 hPa 0,0 l/m 0,0 km/h (0 Bft)
25.04.2009 06:00 19,8 C 7,3 C 46 % 76 % 1009,4 hPa 0,0 l/m 0,0 km/h (0 Bft)
25.04.2009 07:00 19,8 C 7,6 C 47 % 78 % 1009,4 hPa 0,0 l/m 0,0 km/h (0 Bft)
25.04.2009 08:00 19,7 C 9,5 C 47 % 80 % 1009,4 hPa 0,0 l/m 0,2 km/h (0 Bft)
25.04.2009 09:00 19,6 C 11,7 C 47 % 76 % 1009,3 hPa 0,0 l/m 0,9 km/h (0 Bft)
25.04.2009 10:00 19,6 C 14,4 C 48 % 68 % 1009,3 hPa 0,0 l/m 3,6 km/h (1 Bft)
25.04.2009 11:00 19,7 C 17,3 C 48 % 59 % 1009,3 hPa 0,0 l/m 3,9 km/h (1 Bft)
25.04.2009 12:00 19,7 C 19,4 C 47 % 51 % 1009,2 hPa 0,0 l/m 5,4 km/h (1 Bft)
25.04.2009 13:00 19,8 C 19,9 C 47 % 49 % 1009,7 hPa 0,0 l/m 6,2 km/h (2 Bft)
25.04.2009 14:00 19,9 C 19,4 C 47 % 51 % 1010,2 hPa 0,0 l/m 5,1 km/h (1 Bft)
25.04.2009 15:00 20,1 C 19,9 C 48 % 51 % 1010,4 hPa 0,0 l/m 6,3 km/h (2 Bft)
25.04.2009 16:00 20,3 C 18,7 C 48 % 52 % 1011,3 hPa 0,0 l/m 5,5 km/h (1 Bft)
25.04.2009 17:00 20,4 C 18,1 C 47 % 54 % 1011,3 hPa 0,0 l/m 3,5 km/h (1 Bft)
25.04.2009 18:00 20,4 C 17,8 C 47 % 56 % 1011,3 hPa 0,0 l/m 0,4 km/h (0 Bft)
25.04.2009 19:00 20,4 C 17,0 C 48 % 56 % 1012,2 hPa 0,0 l/m 0,8 km/h (0 Bft)
25.04.2009 20:00 20,5 C 16,0 C 48 % 59 % 1012,3 hPa 0,0 l/m 0,0 km/h (0 Bft)
25.04.2009 21:00 20,5 C 15,2 C 48 % 61 % 1012,3 hPa 0,0 l/m 0,0 km/h (0 Bft)
25.04.2009 22:00 20,5 C 14,5 C 48 % 64 % 1012,3 hPa 0,0 l/m 0,0 km/h (0 Bft)
25.04.2009 23:00 20,5 C 13,8 C 48 % 66 % 1012,3 hPa 0,0 l/m 0,0 km/h (0 Bft)
26.04.2009 00:00 20,4 C 13,3 C 49 % 69 % 1012,3 hPa 0,0 l/m 0,0 km/h (0 Bft)
26.04.2009 01:00 20,4 C 13,0 C 49 % 72 % 1012,3 hPa 0,0 l/m 0,0 km/h (0 Bft)
26.04.2009 02:00 20,4 C 12,6 C 50 % 75 % 1011,8 hPa 0,0 l/m 0,0 km/h (0 Bft)
26.04.2009 03:00 20,3 C 12,3 C 51 % 78 % 1011,4 hPa 0,0 l/m 0,0 km/h (0 Bft)
26.04.2009 04:00 20,3 C 12,0 C 51 % 79 % 1011,2 hPa 0,0 l/m 0,0 km/h (0 Bft)
26.04.2009 05:00 20,2 C 11,8 C 51 % 80 % 1010,5 hPa 0,0 l/m 0,0 km/h (0 Bft)
26.04.2009 06:00 20,2 C 11,5 C 52 % 80 % 1010,4 hPa 0,0 l/m 0,0 km/h (0 Bft)
26.04.2009 07:00 20,1 C 11,4 C 52 % 81 % 1009,7 hPa 0,0 l/m 0,0 km/h (0 Bft)
26.04.2009 08:00 20,1 C 12,2 C 52 % 82 % 1009,3 hPa 0,0 l/m 0,0 km/h (0 Bft)
26.04.2009 09:00 20,1 C 13,8 C 52 % 81 % 1009,3 hPa 0,0 l/m 0,0 km/h (0 Bft)
26.04.2009 10:00 20,2 C 15,9 C 52 % 75 % 1008,6 hPa 0,0 l/m 3,9 km/h (1 Bft)
26.04.2009 11:00 20,2 C 19,0 C 52 % 65 % 1008,2 hPa 0,0 l/m 5,8 km/h (2 Bft)
26.04.2009 12:00 20,5 C 20,5 C 55 % 57 % 1008,2 hPa 0,0 l/m 6,5 km/h (2 Bft)
26.04.2009 13:00 20,6 C 20,8 C 57 % 56 % 1007,2 hPa 0,0 l/m 5,6 km/h (1 Bft)
26.04.2009 14:00 20,6 C 20,6 C 55 % 55 % 1006,8 hPa 0,0 l/m 1,2 km/h (1 Bft)
26.04.2009 15:00 20,8 C 21,3 C 54 % 53 % 1006,2 hPa 0,0 l/m 1,2 km/h (1 Bft)
26.04.2009 16:00 21,2 C 22,3 C 54 % 49 % 1005,6 hPa 0,0 l/m 0,6 km/h (0 Bft)
26.04.2009 17:00 21,4 C 21,4 C 53 % 49 % 1004,6 hPa 0,0 l/m 1,4 km/h (1 Bft)
26.04.2009 18:00 21,5 C 20,3 C 52 % 51 % 1004,2 hPa 0,0 l/m 1,5 km/h (1 Bft)
26.04.2009 19:00 21,6 C 19,4 C 51 % 52 % 1004,2 hPa 0,0 l/m 0,1 km/h (0 Bft)
26.04.2009 20:00 21,6 C 18,0 C 51 % 55 % 1003,4 hPa 0,0 l/m 0,1 km/h (0 Bft)
26.04.2009 21:00 21,7 C 16,8 C 51 % 58 % 1003,3 hPa 0,0 l/m 0,0 km/h (0 Bft)
26.04.2009 22:00 21,6 C 15,8 C 51 % 64 % 1003,3 hPa 0,0 l/m 0,1 km/h (0 Bft)
26.04.2009 23:00 21,5 C 14,4 C 51 % 73 % 1004,2 hPa 3,6 l/m 1,6 km/h (1 Bft)
Min-Datum _ 24.04.09 24.04.09 22.04.09 22.04.09 26.04.09 - 20.04.09
_ Min-Zeit 07:36 06:02 20:26 17:28 20:12 - 00:00
Minimum _ 18,8 C 3,9 C 41 % 39 % 1003,2 hPa - 0,0 km/h (0 Bft)
Max-Datum _ 26.04.09 20.04.09 26.04.09 20.04.09 22.04.09 26.04.09 20.04.09
_ Max-Zeit 21:34 16:28 12:46 09:40 02:34 23:30 12:18
Maximum _ 21,8 C 22,7 C 57 % 87 % 1024,5 hPa 3,6 l/m 51,1 km/h
W (7 Bft)
Durchschnitt _ 20,0 C 13,1 C 48 % 64 % 1018,6 hPa #3,6 l/m 1,0 km/h (0 Bft)
© 2012 W. Hausmann